sensor_id;sensor_type;location;lat;lon;timestamp;temperature;humidity
77039;DHT22;65970;50.476;4.840;2023-08-21T00:04:34;25.30;32.20
77039;DHT22;65970;50.476;4.840;2023-08-21T00:09:35;25.30;32.20
77039;DHT22;65970;50.476;4.840;2023-08-21T00:14:35;25.30;32.10
77039;DHT22;65970;50.476;4.840;2023-08-21T00:19:36;25.20;32.10
77039;DHT22;65970;50.476;4.840;2023-08-21T00:24:36;25.10;32.20
77039;DHT22;65970;50.476;4.840;2023-08-21T00:29:37;25.10;32.30
77039;DHT22;65970;50.476;4.840;2023-08-21T00:34:37;25.00;32.20
77039;DHT22;65970;50.476;4.840;2023-08-21T00:39:38;25.00;32.20
77039;DHT22;65970;50.476;4.840;2023-08-21T00:44:38;24.90;32.40
77039;DHT22;65970;50.476;4.840;2023-08-21T00:49:39;24.90;32.50
77039;DHT22;65970;50.476;4.840;2023-08-21T00:54:40;24.90;32.50
77039;DHT22;65970;50.476;4.840;2023-08-21T00:59:41;24.80;32.40
77039;DHT22;65970;50.476;4.840;2023-08-21T01:04:42;24.80;32.40
77039;DHT22;65970;50.476;4.840;2023-08-21T01:09:56;24.70;32.40
77039;DHT22;65970;50.476;4.840;2023-08-21T01:14:58;24.70;32.40
77039;DHT22;65970;50.476;4.840;2023-08-21T01:19:59;24.60;32.40
77039;DHT22;65970;50.476;4.840;2023-08-21T01:25:00;24.60;32.30
77039;DHT22;65970;50.476;4.840;2023-08-21T01:30:02;24.50;32.40
77039;DHT22;65970;50.476;4.840;2023-08-21T01:35:04;24.50;32.50
77039;DHT22;65970;50.476;4.840;2023-08-21T01:40:06;24.40;32.40
77039;DHT22;65970;50.476;4.840;2023-08-21T01:45:07;24.40;32.40
77039;DHT22;65970;50.476;4.840;2023-08-21T01:50:08;24.40;32.50
77039;DHT22;65970;50.476;4.840;2023-08-21T01:55:09;24.30;32.50
77039;DHT22;65970;50.476;4.840;2023-08-21T02:00:10;24.30;32.60
77039;DHT22;65970;50.476;4.840;2023-08-21T02:05:11;24.20;32.60
77039;DHT22;65970;50.476;4.840;2023-08-21T02:10:11;24.20;32.80
77039;DHT22;65970;50.476;4.840;2023-08-21T02:15:12;24.10;32.80
77039;DHT22;65970;50.476;4.840;2023-08-21T02:20:12;24.10;32.80
77039;DHT22;65970;50.476;4.840;2023-08-21T02:25:13;24.10;32.90
77039;DHT22;65970;50.476;4.840;2023-08-21T02:30:13;24.00;32.80
77039;DHT22;65970;50.476;4.840;2023-08-21T02:35:14;24.00;33.00
77039;DHT22;65970;50.476;4.840;2023-08-21T02:40:15;23.90;33.00
77039;DHT22;65970;50.476;4.840;2023-08-21T02:45:15;23.90;33.10
77039;DHT22;65970;50.476;4.840;2023-08-21T02:50:16;23.90;33.00
77039;DHT22;65970;50.476;4.840;2023-08-21T02:55:16;23.80;33.10
77039;DHT22;65970;50.476;4.840;2023-08-21T03:00:17;23.80;33.00
77039;DHT22;65970;50.476;4.840;2023-08-21T03:05:18;23.70;33.30
77039;DHT22;65970;50.476;4.840;2023-08-21T03:10:18;23.70;33.20
77039;DHT22;65970;50.476;4.840;2023-08-21T03:15:19;23.70;32.50
77039;DHT22;65970;50.476;4.840;2023-08-21T03:20:19;23.60;33.20
77039;DHT22;65970;50.476;4.840;2023-08-21T03:25:20;23.60;33.40
77039;DHT22;65970;50.476;4.840;2023-08-21T03:30:21;23.60;33.40
77039;DHT22;65970;50.476;4.840;2023-08-21T03:35:21;23.50;33.40
77039;DHT22;65970;50.476;4.840;2023-08-21T03:40:22;23.50;33.40
77039;DHT22;65970;50.476;4.840;2023-08-21T03:45:22;23.50;33.50
77039;DHT22;65970;50.476;4.840;2023-08-21T03:50:23;23.40;33.40
77039;DHT22;65970;50.476;4.840;2023-08-21T03:55:23;23.40;33.50
77039;DHT22;65970;50.476;4.840;2023-08-21T04:00:24;23.30;33.50
77039;DHT22;65970;50.476;4.840;2023-08-21T04:05:24;23.30;33.40
77039;DHT22;65970;50.476;4.840;2023-08-21T04:10:25;23.20;33.40
77039;DHT22;65970;50.476;4.840;2023-08-21T04:15:26;23.20;33.50
77039;DHT22;65970;50.476;4.840;2023-08-21T04:20:26;23.20;33.50
77039;DHT22;65970;50.476;4.840;2023-08-21T04:25:27;23.10;33.40
77039;DHT22;65970;50.476;4.840;2023-08-21T04:30:27;23.10;33.40
77039;DHT22;65970;50.476;4.840;2023-08-21T04:35:28;23.00;33.20
77039;DHT22;65970;50.476;4.840;2023-08-21T04:40:28;23.00;33.40
77039;DHT22;65970;50.476;4.840;2023-08-21T04:45:29;22.90;33.40
77039;DHT22;65970;50.476;4.840;2023-08-21T04:50:29;22.90;33.40
77039;DHT22;65970;50.476;4.840;2023-08-21T04:55:30;22.90;33.50
77039;DHT22;65970;50.476;4.840;2023-08-21T05:00:30;22.80;33.60
77039;DHT22;65970;50.476;4.840;2023-08-21T05:05:31;22.80;33.50
77039;DHT22;65970;50.476;4.840;2023-08-21T05:10:31;22.80;33.60
77039;DHT22;65970;50.476;4.840;2023-08-21T05:15:32;22.70;33.90
77039;DHT22;65970;50.476;4.840;2023-08-21T05:20:32;22.70;33.80
77039;DHT22;65970;50.476;4.840;2023-08-21T05:25:33;22.70;33.90
77039;DHT22;65970;50.476;4.840;2023-08-21T05:30:35;22.60;34.00
77039;DHT22;65970;50.476;4.840;2023-08-21T05:35:36;22.60;34.20
77039;DHT22;65970;50.476;4.840;2023-08-21T05:40:37;22.60;33.20
77039;DHT22;65970;50.476;4.840;2023-08-21T05:45:37;22.50;34.30
77039;DHT22;65970;50.476;4.840;2023-08-21T05:50:38;22.50;34.40
77039;DHT22;65970;50.476;4.840;2023-08-21T05:55:38;22.50;34.50
77039;DHT22;65970;50.476;4.840;2023-08-21T06:00:39;22.40;34.50
77039;DHT22;65970;50.476;4.840;2023-08-21T06:05:39;22.40;34.70
77039;DHT22;65970;50.476;4.840;2023-08-21T06:10:40;22.40;34.80
77039;DHT22;65970;50.476;4.840;2023-08-21T06:15:43;22.40;35.00
77039;DHT22;65970;50.476;4.840;2023-08-21T06:20:44;22.30;35.10
77039;DHT22;65970;50.476;4.840;2023-08-21T06:25:44;22.40;35.20
77039;DHT22;65970;50.476;4.840;2023-08-21T06:30:45;22.30;35.40
77039;DHT22;65970;50.476;4.840;2023-08-21T06:35:45;22.30;35.70
77039;DHT22;65970;50.476;4.840;2023-08-21T06:40:46;22.30;35.50
77039;DHT22;65970;50.476;4.840;2023-08-21T06:45:46;22.30;35.50
77039;DHT22;65970;50.476;4.840;2023-08-21T06:50:47;22.20;35.60
77039;DHT22;65970;50.476;4.840;2023-08-21T06:55:47;22.20;35.80
77039;DHT22;65970;50.476;4.840;2023-08-21T07:00:48;22.20;36.00
77039;DHT22;65970;50.476;4.840;2023-08-21T07:05:59;22.20;36.00
77039;DHT22;65970;50.476;4.840;2023-08-21T07:11:02;22.20;36.10
77039;DHT22;65970;50.476;4.840;2023-08-21T07:16:03;22.20;36.10
77039;DHT22;65970;50.476;4.840;2023-08-21T07:21:03;22.20;35.60
77039;DHT22;65970;50.476;4.840;2023-08-21T07:26:04;22.20;35.70
77039;DHT22;65970;50.476;4.840;2023-08-21T07:31:04;22.20;35.90
77039;DHT22;65970;50.476;4.840;2023-08-21T07:36:05;22.20;35.90
77039;DHT22;65970;50.476;4.840;2023-08-21T07:41:08;22.20;35.50
77039;DHT22;65970;50.476;4.840;2023-08-21T07:46:12;22.20;35.50
77039;DHT22;65970;50.476;4.840;2023-08-21T07:51:13;22.20;36.00
77039;DHT22;65970;50.476;4.840;2023-08-21T07:56:13;22.20;35.70
77039;DHT22;65970;50.476;4.840;2023-08-21T08:01:14;22.10;35.40
77039;DHT22;65970;50.476;4.840;2023-08-21T08:06:14;22.10;35.40
77039;DHT22;65970;50.476;4.840;2023-08-21T08:11:15;22.20;35.20
77039;DHT22;65970;50.476;4.840;2023-08-21T08:16:15;22.20;35.10
77039;DHT22;65970;50.476;4.840;2023-08-21T08:21:16;22.20;35.00
77039;DHT22;65970;50.476;4.840;2023-08-21T08:26:16;22.20;35.00
77039;DHT22;65970;50.476;4.840;2023-08-21T08:31:18;22.30;35.00
77039;DHT22;65970;50.476;4.840;2023-08-21T08:36:18;22.30;35.00
77039;DHT22;65970;50.476;4.840;2023-08-21T08:41:30;22.40;34.90
77039;DHT22;65970;50.476;4.840;2023-08-21T08:46:33;22.40;34.80
77039;DHT22;65970;50.476;4.840;2023-08-21T08:51:35;22.50;34.70
77039;DHT22;65970;50.476;4.840;2023-08-21T08:56:37;22.60;34.70
77039;DHT22;65970;50.476;4.840;2023-08-21T09:01:37;22.70;34.70
77039;DHT22;65970;50.476;4.840;2023-08-21T09:06:38;22.80;34.70
77039;DHT22;65970;50.476;4.840;2023-08-21T09:11:43;22.90;34.90
77039;DHT22;65970;50.476;4.840;2023-08-21T09:17:01;23.00;34.90
77039;DHT22;65970;50.476;4.840;2023-08-21T09:22:13;23.10;34.80
77039;DHT22;65970;50.476;4.840;2023-08-21T09:27:16;23.20;34.80
77039;DHT22;65970;50.476;4.840;2023-08-21T09:32:16;23.30;34.90
77039;DHT22;65970;50.476;4.840;2023-08-21T09:37:17;23.50;34.90
77039;DHT22;65970;50.476;4.840;2023-08-21T09:42:18;23.60;34.80
77039;DHT22;65970;50.476;4.840;2023-08-21T09:47:19;23.70;34.50
77039;DHT22;65970;50.476;4.840;2023-08-21T09:52:20;23.80;34.50
77039;DHT22;65970;50.476;4.840;2023-08-21T09:57:22;23.90;34.60
77039;DHT22;65970;50.476;4.840;2023-08-21T10:02:23;24.00;34.20
77039;DHT22;65970;50.476;4.840;2023-08-21T10:07:26;24.10;34.50
77039;DHT22;65970;50.476;4.840;2023-08-21T10:12:28;24.30;34.50
77039;DHT22;65970;50.476;4.840;2023-08-21T10:17:28;24.40;34.60
77039;DHT22;65970;50.476;4.840;2023-08-21T10:22:43;24.50;34.60
77039;DHT22;65970;50.476;4.840;2023-08-21T10:27:45;24.60;34.50
77039;DHT22;65970;50.476;4.840;2023-08-21T10:32:47;24.80;34.50
77039;DHT22;65970;50.476;4.840;2023-08-21T10:38:16;24.90;34.60
77039;DHT22;65970;50.476;4.840;2023-08-21T10:43:45;25.00;34.60
77039;DHT22;65970;50.476;4.840;2023-08-21T10:48:46;25.10;34.60
77039;DHT22;65970;50.476;4.840;2023-08-21T10:53:46;25.20;34.60
77039;DHT22;65970;50.476;4.840;2023-08-21T10:58:47;25.30;34.50
77039;DHT22;65970;50.476;4.840;2023-08-21T11:03:50;25.40;34.30
77039;DHT22;65970;50.476;4.840;2023-08-21T11:08:50;25.50;34.30
77039;DHT22;65970;50.476;4.840;2023-08-21T11:13:54;25.60;34.20
77039;DHT22;65970;50.476;4.840;2023-08-21T11:18:54;25.70;34.40
77039;DHT22;65970;50.476;4.840;2023-08-21T11:23:55;25.80;34.20
77039;DHT22;65970;50.476;4.840;2023-08-21T11:28:56;25.90;34.30
77039;DHT22;65970;50.476;4.840;2023-08-21T11:33:56;26.00;34.70
77039;DHT22;65970;50.476;4.840;2023-08-21T11:39:03;26.00;34.70
77039;DHT22;65970;50.476;4.840;2023-08-21T11:44:04;26.00;34.70
77039;DHT22;65970;50.476;4.840;2023-08-21T11:49:04;26.00;34.70
77039;DHT22;65970;50.476;4.840;2023-08-21T11:54:06;26.10;34.80
77039;DHT22;65970;50.476;4.840;2023-08-21T11:59:07;26.10;34.70
77039;DHT22;65970;50.476;4.840;2023-08-21T12:04:16;26.20;34.80
77039;DHT22;65970;50.476;4.840;2023-08-21T12:09:17;26.30;34.90
77039;DHT22;65970;50.476;4.840;2023-08-21T12:14:17;26.30;33.40
77039;DHT22;65970;50.476;4.840;2023-08-21T12:19:18;26.40;34.80
77039;DHT22;65970;50.476;4.840;2023-08-21T12:24:18;26.50;34.50
77039;DHT22;65970;50.476;4.840;2023-08-21T12:29:19;26.60;34.80
77039;DHT22;65970;50.476;4.840;2023-08-21T12:34:19;26.60;34.50
77039;DHT22;65970;50.476;4.840;2023-08-21T12:39:20;26.70;34.60
77039;DHT22;65970;50.476;4.840;2023-08-21T12:44:21;26.70;34.50
77039;DHT22;65970;50.476;4.840;2023-08-21T12:49:21;26.80;33.60
77039;DHT22;65970;50.476;4.840;2023-08-21T12:54:22;26.90;33.60
77039;DHT22;65970;50.476;4.840;2023-08-21T12:59:22;27.00;34.90
77039;DHT22;65970;50.476;4.840;2023-08-21T13:04:23;27.00;34.40
77039;DHT22;65970;50.476;4.840;2023-08-21T13:09:23;27.10;35.00
77039;DHT22;65970;50.476;4.840;2023-08-21T13:14:24;27.30;35.20
77039;DHT22;65970;50.476;4.840;2023-08-21T13:19:24;27.30;31.60
77039;DHT22;65970;50.476;4.840;2023-08-21T13:24:25;27.40;34.30
77039;DHT22;65970;50.476;4.840;2023-08-21T13:29:25;27.40;31.50
77039;DHT22;65970;50.476;4.840;2023-08-21T13:34:26;27.50;34.90
77039;DHT22;65970;50.476;4.840;2023-08-21T13:39:26;27.50;34.20
77039;DHT22;65970;50.476;4.840;2023-08-21T13:44:27;27.60;33.50
77039;DHT22;65970;50.476;4.840;2023-08-21T13:49:27;27.60;34.20
77039;DHT22;65970;50.476;4.840;2023-08-21T13:54:28;27.60;34.80
77039;DHT22;65970;50.476;4.840;2023-08-21T13:59:29;27.70;34.60
77039;DHT22;65970;50.476;4.840;2023-08-21T14:04:32;27.80;34.70
77039;DHT22;65970;50.476;4.840;2023-08-21T14:09:32;27.90;34.20
77039;DHT22;65970;50.476;4.840;2023-08-21T14:14:34;27.90;35.30
77039;DHT22;65970;50.476;4.840;2023-08-21T14:19:35;28.00;35.10
77039;DHT22;65970;50.476;4.840;2023-08-21T14:24:35;28.10;35.00
77039;DHT22;65970;50.476;4.840;2023-08-21T14:29:36;28.10;33.80
77039;DHT22;65970;50.476;4.840;2023-08-21T14:34:36;28.20;34.60
77039;DHT22;65970;50.476;4.840;2023-08-21T14:39:37;28.20;33.30
77039;DHT22;65970;50.476;4.840;2023-08-21T14:44:37;28.30;33.00
77039;DHT22;65970;50.476;4.840;2023-08-21T14:49:38;28.30;30.10
77039;DHT22;65970;50.476;4.840;2023-08-21T14:54:41;28.30;31.10
77039;DHT22;65970;50.476;4.840;2023-08-21T14:59:41;28.40;31.90
77039;DHT22;65970;50.476;4.840;2023-08-21T15:04:42;28.40;30.50
77039;DHT22;65970;50.476;4.840;2023-08-21T15:09:43;28.50;29.80
77039;DHT22;65970;50.476;4.840;2023-08-21T15:14:44;28.50;28.90
77039;DHT22;65970;50.476;4.840;2023-08-21T15:19:47;28.50;30.70
77039;DHT22;65970;50.476;4.840;2023-08-21T15:24:48;28.60;30.50
77039;DHT22;65970;50.476;4.840;2023-08-21T15:29:49;28.60;29.30
77039;DHT22;65970;50.476;4.840;2023-08-21T15:34:49;28.60;30.40
77039;DHT22;65970;50.476;4.840;2023-08-21T15:39:50;28.60;27.30
77039;DHT22;65970;50.476;4.840;2023-08-21T15:44:50;28.60;29.90
77039;DHT22;65970;50.476;4.840;2023-08-21T15:49:51;28.60;26.50
77039;DHT22;65970;50.476;4.840;2023-08-21T15:54:51;28.60;27.60
77039;DHT22;65970;50.476;4.840;2023-08-21T15:59:52;28.60;26.20
77039;DHT22;65970;50.476;4.840;2023-08-21T16:04:53;28.50;27.20
77039;DHT22;65970;50.476;4.840;2023-08-21T16:09:53;28.60;26.40
77039;DHT22;65970;50.476;4.840;2023-08-21T16:14:54;28.50;25.40
77039;DHT22;65970;50.476;4.840;2023-08-21T16:19:54;28.50;27.70
77039;DHT22;65970;50.476;4.840;2023-08-21T16:24:55;28.50;27.70
77039;DHT22;65970;50.476;4.840;2023-08-21T16:29:55;28.50;25.90
77039;DHT22;65970;50.476;4.840;2023-08-21T16:34:56;28.50;27.00
77039;DHT22;65970;50.476;4.840;2023-08-21T16:39:56;28.40;26.10
77039;DHT22;65970;50.476;4.840;2023-08-21T16:44:57;28.40;26.00
77039;DHT22;65970;50.476;4.840;2023-08-21T16:49:57;28.40;26.00
77039;DHT22;65970;50.476;4.840;2023-08-21T16:54:58;28.40;26.20
77039;DHT22;65970;50.476;4.840;2023-08-21T16:59:58;28.40;25.70
77039;DHT22;65970;50.476;4.840;2023-08-21T17:04:59;28.40;26.00
77039;DHT22;65970;50.476;4.840;2023-08-21T17:10:00;28.40;26.40
77039;DHT22;65970;50.476;4.840;2023-08-21T17:15:04;28.40;25.90
77039;DHT22;65970;50.476;4.840;2023-08-21T17:20:05;28.30;26.10
77039;DHT22;65970;50.476;4.840;2023-08-21T17:25:06;28.30;26.20
77039;DHT22;65970;50.476;4.840;2023-08-21T17:30:07;28.30;26.70
77039;DHT22;65970;50.476;4.840;2023-08-21T17:35:08;28.30;26.30
77039;DHT22;65970;50.476;4.840;2023-08-21T17:40:09;28.20;25.90
77039;DHT22;65970;50.476;4.840;2023-08-21T17:45:11;28.20;26.20
77039;DHT22;65970;50.476;4.840;2023-08-21T17:50:11;28.20;26.20
77039;DHT22;65970;50.476;4.840;2023-08-21T17:55:12;28.10;26.30
77039;DHT22;65970;50.476;4.840;2023-08-21T18:00:13;28.10;26.40
77039;DHT22;65970;50.476;4.840;2023-08-21T18:05:14;28.10;26.50
77039;DHT22;65970;50.476;4.840;2023-08-21T18:10:14;28.00;26.40
77039;DHT22;65970;50.476;4.840;2023-08-21T18:15:15;28.00;26.60
77039;DHT22;65970;50.476;4.840;2023-08-21T18:20:16;27.90;26.00
77039;DHT22;65970;50.476;4.840;2023-08-21T18:25:17;27.90;25.80
77039;DHT22;65970;50.476;4.840;2023-08-21T18:30:18;27.90;26.00
77039;DHT22;65970;50.476;4.840;2023-08-21T18:35:19;27.80;26.10
77039;DHT22;65970;50.476;4.840;2023-08-21T18:40:19;27.70;25.80
77039;DHT22;65970;50.476;4.840;2023-08-21T18:45:20;27.70;26.10
77039;DHT22;65970;50.476;4.840;2023-08-21T18:55:38;27.60;26.30
77039;DHT22;65970;50.476;4.840;2023-08-21T19:00:39;27.50;26.50
77039;DHT22;65970;50.476;4.840;2023-08-21T19:05:40;27.40;26.50
77039;DHT22;65970;50.476;4.840;2023-08-21T19:10:40;27.40;26.60
77039;DHT22;65970;50.476;4.840;2023-08-21T19:15:41;27.30;26.80
77039;DHT22;65970;50.476;4.840;2023-08-21T19:20:41;27.20;26.90
77039;DHT22;65970;50.476;4.840;2023-08-21T19:25:42;27.20;26.90
77039;DHT22;65970;50.476;4.840;2023-08-21T19:30:42;27.10;27.00
77039;DHT22;65970;50.476;4.840;2023-08-21T19:35:43;27.10;26.70
77039;DHT22;65970;50.476;4.840;2023-08-21T19:40:43;27.00;27.00
77039;DHT22;65970;50.476;4.840;2023-08-21T19:45:53;26.90;26.40
77039;DHT22;65970;50.476;4.840;2023-08-21T19:50:57;26.90;26.40
77039;DHT22;65970;50.476;4.840;2023-08-21T19:55:58;26.80;26.70
77039;DHT22;65970;50.476;4.840;2023-08-21T20:00:58;26.70;26.40
77039;DHT22;65970;50.476;4.840;2023-08-21T20:06:00;26.60;26.60
77039;DHT22;65970;50.476;4.840;2023-08-21T20:11:04;26.60;26.50
77039;DHT22;65970;50.476;4.840;2023-08-21T20:16:04;26.50;26.60
77039;DHT22;65970;50.476;4.840;2023-08-21T20:21:05;26.50;26.70
77039;DHT22;65970;50.476;4.840;2023-08-21T20:26:06;26.40;26.80
77039;DHT22;65970;50.476;4.840;2023-08-21T20:31:06;26.40;27.00
77039;DHT22;65970;50.476;4.840;2023-08-21T20:36:07;26.30;26.70
77039;DHT22;65970;50.476;4.840;2023-08-21T20:41:07;26.20;26.80
77039;DHT22;65970;50.476;4.840;2023-08-21T20:46:08;26.20;27.10
77039;DHT22;65970;50.476;4.840;2023-08-21T20:51:08;26.10;26.90
77039;DHT22;65970;50.476;4.840;2023-08-21T20:56:09;26.00;26.90
77039;DHT22;65970;50.476;4.840;2023-08-21T21:01:09;26.00;26.90
77039;DHT22;65970;50.476;4.840;2023-08-21T21:06:10;25.90;26.80
77039;DHT22;65970;50.476;4.840;2023-08-21T21:11:11;25.90;26.80
77039;DHT22;65970;50.476;4.840;2023-08-21T21:16:11;25.80;26.90
77039;DHT22;65970;50.476;4.840;2023-08-21T21:21:12;25.80;26.90
77039;DHT22;65970;50.476;4.840;2023-08-21T21:26:12;25.70;27.00
77039;DHT22;65970;50.476;4.840;2023-08-21T21:31:13;25.60;26.90
77039;DHT22;65970;50.476;4.840;2023-08-21T21:36:13;25.50;27.10
77039;DHT22;65970;50.476;4.840;2023-08-21T21:41:14;25.50;27.20
77039;DHT22;65970;50.476;4.840;2023-08-21T21:46:16;25.40;27.30
77039;DHT22;65970;50.476;4.840;2023-08-21T21:51:17;25.40;27.30
77039;DHT22;65970;50.476;4.840;2023-08-21T21:56:17;25.30;27.40
77039;DHT22;65970;50.476;4.840;2023-08-21T22:01:18;25.30;27.40
77039;DHT22;65970;50.476;4.840;2023-08-21T22:06:19;25.20;27.50
77039;DHT22;65970;50.476;4.840;2023-08-21T22:11:20;25.10;27.80
77039;DHT22;65970;50.476;4.840;2023-08-21T22:16:20;25.10;27.80
77039;DHT22;65970;50.476;4.840;2023-08-21T22:21:21;25.00;27.60
77039;DHT22;65970;50.476;4.840;2023-08-21T22:26:21;25.00;27.40
77039;DHT22;65970;50.476;4.840;2023-08-21T22:31:22;24.90;27.70
77039;DHT22;65970;50.476;4.840;2023-08-21T22:36:22;24.90;27.90
77039;DHT22;65970;50.476;4.840;2023-08-21T22:41:23;24.80;27.90
77039;DHT22;65970;50.476;4.840;2023-08-21T22:46:24;24.70;28.20
77039;DHT22;65970;50.476;4.840;2023-08-21T22:51:24;24.70;28.20
77039;DHT22;65970;50.476;4.840;2023-08-21T22:56:25;24.60;28.30
77039;DHT22;65970;50.476;4.840;2023-08-21T23:01:25;24.60;28.30
77039;DHT22;65970;50.476;4.840;2023-08-21T23:06:26;24.50;28.40
77039;DHT22;65970;50.476;4.840;2023-08-21T23:11:26;24.50;28.60
77039;DHT22;65970;50.476;4.840;2023-08-21T23:16:27;24.40;28.50
77039;DHT22;65970;50.476;4.840;2023-08-21T23:21:28;24.40;28.50
77039;DHT22;65970;50.476;4.840;2023-08-21T23:26:28;24.30;28.50
77039;DHT22;65970;50.476;4.840;2023-08-21T23:31:33;24.30;28.70
77039;DHT22;65970;50.476;4.840;2023-08-21T23:36:33;24.20;28.60
77039;DHT22;65970;50.476;4.840;2023-08-21T23:41:34;24.20;28.70
77039;DHT22;65970;50.476;4.840;2023-08-21T23:46:35;24.10;28.90
77039;DHT22;65970;50.476;4.840;2023-08-21T23:51:35;24.10;29.00
77039;DHT22;65970;50.476;4.840;2023-08-21T23:56:36;24.10;28.90
